Time;durP1;ratioP1;P1;durP2;ratioP2;P2;SDS_P1;SDS_P2;PMS_P1;PMS_P2;Temp;Humidity;BMP_temperature;BMP_pressure;BME280_temperature;BME280_humidity;BME280_pressure;Samples;Min_cycle;Max_cycle;Signal;HPM_P1;HPM_P2
2023/10/04 00:00:51;;;;;;;4.07;1.25;;;13.00;99.90;;;;;;5063994;28;20060;-35
2023/10/04 00:03:18;;;;;;;1.85;0.50;;;13.10;99.90;;;;;;5066823;28;20056;-35
2023/10/04 00:05:44;;;;;;;4.32;0.43;;;13.10;99.90;;;;;;5060211;28;20056;-35
2023/10/04 00:08:09;;;;;;;5.40;0.95;;;13.10;99.90;;;;;;5058675;28;20409;-35
2023/10/04 00:10:35;;;;;;;5.30;0.63;;;13.20;99.90;;;;;;5065378;28;20118;-35
2023/10/04 00:13:01;;;;;;;7.45;0.52;;;13.20;99.90;;;;;;5063830;28;20055;-35
2023/10/04 00:15:29;;;;;;;4.05;0.65;;;13.20;99.90;;;;;;5061194;28;20045;-34
2023/10/04 00:17:55;;;;;;;2.42;0.40;;;13.30;99.90;;;;;;5063896;28;20049;-35
2023/10/04 00:20:31;;;;;;;5.03;0.63;;;13.30;99.90;;;;;;5059628;28;20049;-35
2023/10/04 00:22:57;;;;;;;3.28;0.50;;;13.30;99.90;;;;;;5078306;28;20057;-35
2023/10/04 00:25:25;;;;;;;3.25;0.50;;;13.20;99.90;;;;;;5062568;28;20087;-35
2023/10/04 00:27:55;;;;;;;6.60;0.90;;;13.20;99.90;;;;;;5068903;28;20195;-35
2023/10/04 00:30:22;;;;;;;2.47;0.40;;;13.30;99.90;;;;;;5073174;28;20044;-35
2023/10/04 00:32:48;;;;;;;2.83;0.40;;;13.30;99.90;;;;;;5065365;28;20485;-35
2023/10/04 00:35:17;;;;;;;1.90;0.68;;;13.30;99.90;;;;;;5063225;28;20094;-35
2023/10/04 00:37:48;;;;;;;5.32;0.60;;;13.30;99.90;;;;;;5060635;28;20044;-35
2023/10/04 00:40:21;;;;;;;5.32;0.70;;;13.30;99.90;;;;;;5066118;28;20105;-35
2023/10/04 00:42:48;;;;;;;4.15;0.70;;;13.30;99.90;;;;;;5066332;28;20550;-35
2023/10/04 00:45:14;;;;;;;4.78;0.70;;;13.30;99.90;;;;;;5068872;28;20110;-35
2023/10/04 00:47:47;;;;;;;5.35;0.95;;;13.30;99.90;;;;;;5062870;28;20543;-35
2023/10/04 00:50:18;;;;;;;3.22;0.80;;;13.30;99.90;;;;;;5063444;28;20040;-35
2023/10/04 00:53:03;;;;;;;7.25;0.70;;;13.40;99.90;;;;;;5075623;28;20166;-35
2023/10/04 00:55:29;;;;;;;6.22;0.70;;;13.40;99.90;;;;;;5064734;28;20519;-35
2023/10/04 00:57:57;;;;;;;2.72;0.40;;;13.40;99.90;;;;;;5062334;28;20064;-35
2023/10/04 01:00:24;;;;;;;3.63;0.60;;;13.50;99.90;;;;;;5063005;28;20520;-35
2023/10/04 01:02:50;;;;;;;6.28;0.80;;;13.50;99.90;;;;;;5065704;28;20048;-35
2023/10/04 01:05:17;;;;;;;6.88;0.65;;;13.50;99.90;;;;;;5059194;28;20048;-35
2023/10/04 01:07:44;;;;;;;7.20;1.05;;;13.50;99.90;;;;;;5069372;28;20048;-35
2023/10/04 01:10:16;;;;;;;3.92;0.60;;;13.60;99.90;;;;;;5068800;28;20055;-35
2023/10/04 01:12:46;;;;;;;8.75;0.57;;;13.60;99.90;;;;;;5074230;28;20115;-35
2023/10/04 01:15:36;;;;;;;6.43;0.77;;;13.60;99.90;;;;;;5065251;28;20488;-35
2023/10/04 01:18:16;;;;;;;4.03;0.60;;;13.60;99.90;;;;;;5069051;28;20087;-35
2023/10/04 01:20:42;;;;;;;6.65;0.80;;;13.60;99.90;;;;;;5064507;28;20052;-35
2023/10/04 01:23:11;;;;;;;7.60;1.13;;;13.60;99.90;;;;;;5066461;28;20134;-35
2023/10/04 01:25:39;;;;;;;5.38;0.70;;;13.50;99.90;;;;;;5071651;28;20098;-35
2023/10/04 01:28:12;;;;;;;7.57;0.90;;;13.50;99.90;;;;;;5073035;28;20534;-35
2023/10/04 01:30:41;;;;;;;;;;;13.50;99.90;;;;;;5069279;28;20482;-35
2023/10/04 01:33:10;;;;;;;4.07;0.70;;;13.50;99.90;;;;;;5068044;28;19952;-35
2023/10/04 01:35:37;;;;;;;6.07;0.60;;;13.50;99.90;;;;;;5064110;28;20119;-35
2023/10/04 01:38:06;;;;;;;10.45;0.90;;;13.50;99.90;;;;;;5071124;28;20785;-35
2023/10/04 01:40:34;;;;;;;5.57;0.82;;;13.50;99.90;;;;;;5067436;28;20055;-35
2023/10/04 01:42:59;;;;;;;7.50;2.13;;;13.50;99.90;;;;;;5069572;28;20195;-35
2023/10/04 01:45:25;;;;;;;4.03;0.75;;;13.50;99.90;;;;;;5067566;28;20194;-35
2023/10/04 01:47:51;;;;;;;4.55;0.75;;;13.40;99.90;;;;;;5072268;28;20048;-35
2023/10/04 01:50:18;;;;;;;3.15;0.50;;;13.40;99.90;;;;;;5070584;28;20073;-38
2023/10/04 01:52:47;;;;;;;5.97;0.65;;;13.40;99.90;;;;;;5071467;28;20126;-35
2023/10/04 01:55:16;;;;;;;3.05;0.70;;;13.40;99.90;;;;;;5068141;28;20137;-35
2023/10/04 01:57:43;;;;;;;7.72;0.70;;;13.40;99.90;;;;;;5066932;28;20522;-35
2023/10/04 02:00:10;;;;;;;8.57;1.02;;;13.40;99.90;;;;;;5062316;28;20041;-35
2023/10/04 02:02:39;;;;;;;4.28;0.50;;;13.40;99.90;;;;;;5069439;28;20087;-35
2023/10/04 02:05:09;;;;;;;6.43;0.75;;;13.40;99.90;;;;;;5061981;28;20509;-35
2023/10/04 02:07:38;;;;;;;5.35;1.10;;;13.40;99.90;;;;;;5066274;28;20544;-35
2023/10/04 02:10:13;;;;;;;4.18;0.70;;;13.40;99.90;;;;;;5067157;28;20497;-35
2023/10/04 02:12:40;;;;;;;6.22;0.73;;;13.40;99.90;;;;;;5070391;28;20044;-35
2023/10/04 02:15:07;;;;;;;8.40;0.95;;;13.40;99.90;;;;;;5065878;28;20093;-35
2023/10/04 02:17:33;;;;;;;4.05;0.65;;;13.40;99.90;;;;;;5065234;28;20498;-35
2023/10/04 02:19:58;;;;;;;4.70;0.75;;;13.40;99.90;;;;;;5069923;28;20052;-35
2023/10/04 02:22:25;;;;;;;6.20;0.85;;;13.40;99.90;;;;;;5065356;28;20044;-35
2023/10/04 02:24:53;;;;;;;3.65;0.60;;;13.40;99.90;;;;;;5067305;28;20090;-35
2023/10/04 02:27:18;;;;;;;5.78;0.73;;;13.40;99.90;;;;;;5062670;28;20061;-35
2023/10/04 02:29:46;;;;;;;6.78;0.95;;;13.40;99.90;;;;;;5049989;28;20593;-35
2023/10/04 02:32:13;;;;;;;5.43;1.00;;;13.40;99.90;;;;;;5065962;28;20048;-35
2023/10/04 02:34:41;;;;;;;6.13;1.02;;;13.40;99.90;;;;;;5063842;28;20561;-35
2023/10/04 02:37:07;;;;;;;7.90;0.93;;;13.40;99.90;;;;;;5064547;28;20055;-35
2023/10/04 02:39:39;;;;;;;6.88;1.02;;;13.40;99.90;;;;;;5068875;28;20487;-35
2023/10/04 02:42:11;;;;;;;8.93;0.93;;;13.40;99.90;;;;;;5061793;28;20693;-35
2023/10/04 02:44:37;;;;;;;9.48;1.00;;;13.40;99.90;;;;;;5069870;28;20053;-35
2023/10/04 02:47:06;;;;;;;4.05;0.82;;;13.30;99.90;;;;;;5065732;28;20107;-35
2023/10/04 02:49:38;;;;;;;4.95;0.80;;;13.20;99.90;;;;;;5065206;28;20066;-35
2023/10/04 02:52:07;;;;;;;3.83;0.85;;;12.90;99.90;;;;;;5082836;28;20090;-35
2023/10/04 02:54:33;;;;;;;4.60;0.85;;;12.70;99.90;;;;;;5060706;28;20061;-35
2023/10/04 02:57:00;;;;;;;4.75;0.70;;;12.60;99.90;;;;;;5073124;28;20064;-35
2023/10/04 02:59:26;;;;;;;5.03;0.93;;;12.40;99.90;;;;;;5065059;28;20052;-35
2023/10/04 03:01:52;;;;;;;5.93;0.90;;;12.30;99.90;;;;;;5062423;28;20060;-35
2023/10/04 03:04:19;;;;;;;7.28;1.35;;;12.30;99.90;;;;;;5063795;28;20053;-35
2023/10/04 03:06:46;;;;;;;5.53;1.00;;;12.20;99.90;;;;;;5062370;28;20090;-35
2023/10/04 03:09:12;;;;;;;2.92;0.90;;;12.20;99.90;;;;;;5059403;28;20493;-35
2023/10/04 03:11:41;;;;;;;6.03;0.65;;;12.10;99.90;;;;;;5065008;28;20044;-35
2023/10/04 03:14:07;;;;;;;6.78;1.20;;;12.10;99.90;;;;;;5064282;28;20051;-35
2023/10/04 03:16:34;;;;;;;5.70;1.10;;;12.10;99.90;;;;;;5056787;28;20056;-35
2023/10/04 03:19:01;;;;;;;6.03;0.80;;;12.00;99.90;;;;;;5061962;28;20048;-35
2023/10/04 03:21:30;;;;;;;4.75;1.05;;;11.90;99.90;;;;;;5066395;28;20052;-35
2023/10/04 03:23:58;;;;;;;6.43;1.13;;;11.90;99.90;;;;;;5062507;28;20061;-35
2023/10/04 03:26:24;;;;;;;6.97;0.98;;;11.80;99.90;;;;;;5063972;28;20041;-35
2023/10/04 03:28:50;;;;;;;8.57;0.85;;;11.80;99.90;;;;;;5064567;28;20048;-35
2023/10/04 03:31:18;;;;;;;5.65;1.00;;;11.80;99.90;;;;;;5062392;28;20056;-35
2023/10/04 03:33:44;;;;;;;4.68;0.88;;;11.70;99.90;;;;;;5063722;28;20051;-37
2023/10/04 03:36:14;;;;;;;5.82;1.35;;;11.70;99.90;;;;;;5066837;28;20509;-35
2023/10/04 03:38:41;;;;;;;5.90;1.25;;;11.70;99.90;;;;;;5061981;28;20150;-35
2023/10/04 03:41:06;;;;;;;5.60;0.90;;;11.70;99.90;;;;;;5072201;28;20052;-35
2023/10/04 03:43:35;;;;;;;6.70;1.38;;;11.70;99.90;;;;;;5067658;28;20044;-35
2023/10/04 03:46:16;;;;;;;6.32;0.95;;;11.80;99.90;;;;;;5064850;28;20140;-35
2023/10/04 03:48:42;;;;;;;4.90;1.27;;;11.90;99.90;;;;;;5066278;28;20047;-35
2023/10/04 03:51:07;;;;;;;6.22;0.98;;;11.90;99.90;;;;;;5063558;28;20113;-35
2023/10/04 03:53:33;;;;;;;7.03;1.08;;;11.90;99.90;;;;;;5072548;28;20064;-35
2023/10/04 03:55:59;;;;;;;3.53;0.90;;;12.00;99.90;;;;;;5067925;28;20063;-43
2023/10/04 03:58:25;;;;;;;4.70;0.90;;;12.00;99.90;;;;;;5067252;28;20421;-35
2023/10/04 04:00:50;;;;;;;7.82;0.95;;;12.10;99.90;;;;;;5063761;28;20056;-35
2023/10/04 04:03:16;;;;;;;6.57;0.98;;;12.10;99.90;;;;;;5073982;28;20052;-35
2023/10/04 04:05:42;;;;;;;5.18;0.80;;;12.10;99.90;;;;;;5069392;28;20105;-35
2023/10/04 04:08:09;;;;;;;9.00;0.93;;;12.10;99.90;;;;;;5072467;28;20461;-35
2023/10/04 04:10:36;;;;;;;5.43;0.95;;;12.20;99.90;;;;;;5069684;28;20117;-35
2023/10/04 04:13:02;;;;;;;5.55;1.05;;;12.20;99.90;;;;;;5073062;28;20049;-35
2023/10/04 04:15:32;;;;;;;6.70;1.40;;;12.20;99.90;;;;;;5068555;28;20044;-35
2023/10/04 04:17:57;;;;;;;6.43;1.02;;;12.20;99.90;;;;;;5073821;28;20048;-35
2023/10/04 04:20:23;;;;;;;4.07;1.13;;;12.20;99.90;;;;;;5071562;28;20048;-35
2023/10/04 04:22:50;;;;;;;6.05;1.05;;;12.20;99.90;;;;;;5069281;28;20062;-35
2023/10/04 04:25:18;;;;;;;7.13;1.00;;;12.30;99.90;;;;;;5067535;28;20055;-35
2023/10/04 04:27:44;;;;;;;7.22;1.02;;;12.30;99.90;;;;;;5067983;28;20045;-35
2023/10/04 04:30:17;;;;;;;5.97;1.15;;;12.20;99.90;;;;;;5064843;28;20044;-35
2023/10/04 04:32:55;;;;;;;8.73;0.93;;;12.30;99.90;;;;;;5066358;28;20044;-35
2023/10/04 04:35:30;;;;;;;5.03;1.15;;;12.30;99.90;;;;;;5066255;28;20486;-35
2023/10/04 04:37:57;;;;;;;3.25;0.70;;;12.30;99.90;;;;;;5066790;28;20489;-35
2023/10/04 04:40:26;;;;;;;8.90;1.02;;;12.30;99.90;;;;;;5062683;28;20048;-35
2023/10/04 04:42:53;;;;;;;6.68;0.93;;;12.30;99.90;;;;;;5062585;28;20056;-35
2023/10/04 04:45:22;;;;;;;5.95;1.10;;;12.20;99.90;;;;;;5066226;28;20040;-35
2023/10/04 04:47:49;;;;;;;6.57;1.05;;;12.20;99.90;;;;;;5064845;28;20101;-35
2023/10/04 04:50:16;;;;;;;4.50;1.20;;;12.20;99.90;;;;;;5053995;28;20049;-35
2023/10/04 04:52:42;;;;;;;6.63;1.27;;;12.20;99.90;;;;;;5067614;28;20556;-35
2023/10/04 04:55:09;;;;;;;6.00;1.00;;;12.20;99.90;;;;;;5059486;28;20049;-35
2023/10/04 04:57:35;;;;;;;6.45;1.33;;;12.10;99.90;;;;;;5054733;28;20053;-35
2023/10/04 05:00:19;;;;;;;6.10;0.90;;;12.10;99.90;;;;;;5050287;28;20048;-35
2023/10/04 05:02:45;;;;;;;5.72;1.02;;;12.00;99.90;;;;;;5059283;28;20044;-35
2023/10/04 05:05:11;;;;;;;3.60;1.20;;;12.00;99.90;;;;;;5062005;28;20048;-35
2023/10/04 05:07:38;;;;;;;4.28;1.10;;;12.00;99.90;;;;;;5046419;28;20441;-35
2023/10/04 05:10:04;;;;;;;7.13;1.45;;;11.90;99.90;;;;;;5058869;28;20410;-35
2023/10/04 05:12:30;;;;;;;8.20;1.40;;;12.00;99.90;;;;;;5071247;28;20044;-35
2023/10/04 05:14:56;;;;;;;6.20;1.00;;;11.90;99.90;;;;;;5068895;28;20129;-35
2023/10/04 05:17:21;;;;;;;5.80;1.30;;;11.90;99.90;;;;;;5065299;28;20445;-35
2023/10/04 05:19:47;;;;;;;7.05;1.13;;;11.90;99.90;;;;;;5061423;28;20102;-35
2023/10/04 05:22:12;;;;;;;2.63;0.93;;;11.90;99.90;;;;;;5063181;28;20060;-35
2023/10/04 05:24:38;;;;;;;9.88;1.50;;;12.00;99.90;;;;;;5068099;28;20084;-35
2023/10/04 05:27:05;;;;;;;5.32;1.45;;;12.00;99.90;;;;;;5066717;28;20139;-35
2023/10/04 05:29:32;;;;;;;6.40;1.15;;;12.00;99.90;;;;;;5066041;28;20135;-35
2023/10/04 05:31:58;;;;;;;6.38;1.55;;;12.00;99.90;;;;;;5060960;28;20053;-35
2023/10/04 05:34:24;;;;;;;6.50;1.17;;;11.90;99.90;;;;;;5071232;28;20047;-35
2023/10/04 05:36:50;;;;;;;7.88;1.20;;;11.90;99.90;;;;;;5062520;28;20552;-35
2023/10/04 05:39:16;;;;;;;3.83;1.10;;;11.90;99.90;;;;;;5071124;28;20127;-35
2023/10/04 05:41:41;;;;;;;6.22;1.50;;;11.80;99.90;;;;;;5065764;28;20139;-35
2023/10/04 05:44:08;;;;;;;4.93;1.55;;;11.80;99.90;;;;;;5069413;28;20111;-35
2023/10/04 05:46:34;;;;;;;6.30;1.83;;;11.80;99.90;;;;;;5074453;28;20078;-35
2023/10/04 05:49:00;;;;;;;6.68;1.30;;;11.80;99.90;;;;;;5068156;28;20051;-35
2023/10/04 05:51:26;;;;;;;5.63;1.52;;;11.70;99.90;;;;;;5041446;28;20049;-35
2023/10/04 05:53:52;;;;;;;8.57;1.67;;;11.70;99.90;;;;;;5041824;28;20490;-35
2023/10/04 05:56:20;;;;;;;8.10;1.85;;;11.70;99.90;;;;;;5043292;28;20501;-35
2023/10/04 05:58:46;;;;;;;5.05;1.17;;;11.60;99.90;;;;;;5036018;28;20545;-34
2023/10/04 06:01:19;;;;;;;10.88;2.13;;;11.60;99.90;;;;;;5034486;28;20053;-35
2023/10/04 06:03:44;;;;;;;;;;;11.60;99.90;;;;;;5039487;28;20095;-35
2023/10/04 06:06:10;;;;;;;5.45;1.27;;;11.50;99.90;;;;;;5040873;28;19916;-35
2023/10/04 06:08:36;;;;;;;4.90;1.50;;;11.50;99.90;;;;;;5051584;28;20052;-35
2023/10/04 06:11:02;;;;;;;3.10;1.10;;;11.50;99.90;;;;;;5056622;28;20058;-35
2023/10/04 06:13:28;;;;;;;5.22;1.10;;;11.50;99.90;;;;;;5041034;28;20055;-35
2023/10/04 06:15:54;;;;;;;6.10;1.10;;;11.50;99.90;;;;;;5069490;28;20421;-35
2023/10/04 06:18:22;;;;;;;7.75;1.25;;;11.50;99.90;;;;;;5059260;28;20048;-35
2023/10/04 06:20:49;;;;;;;10.65;1.48;;;11.50;99.90;;;;;;5059112;28;20044;-35
2023/10/04 06:23:16;;;;;;;5.28;1.48;;;11.50;99.90;;;;;;5053772;28;20059;-35
2023/10/04 06:25:46;;;;;;;6.65;1.58;;;11.50;99.90;;;;;;5055532;28;20057;-35
2023/10/04 06:28:13;;;;;;;6.60;0.90;;;11.60;99.90;;;;;;5040317;28;20080;-35
2023/10/04 06:30:40;;;;;;;9.60;1.35;;;11.60;99.90;;;;;;5043646;28;20450;-35
2023/10/04 06:33:07;;;;;;;7.15;1.02;;;11.60;99.90;;;;;;5063078;28;20486;-35
2023/10/04 06:35:34;;;;;;;7.53;1.10;;;11.60;99.90;;;;;;5063802;28;20048;-35
2023/10/04 06:38:05;;;;;;;5.72;1.30;;;11.60;99.90;;;;;;5066148;28;20489;-35
2023/10/04 06:40:31;;;;;;;6.40;1.30;;;11.70;99.90;;;;;;5060341;28;20498;-34
2023/10/04 06:43:00;;;;;;;8.35;1.70;;;11.70;99.90;;;;;;5062893;28;20140;-35
2023/10/04 06:45:26;;;;;;;7.25;1.33;;;11.80;99.90;;;;;;5059073;28;20052;-35
2023/10/04 06:47:56;;;;;;;4.70;1.23;;;11.70;99.90;;;;;;5056644;28;20063;-35
2023/10/04 06:50:28;;;;;;;6.70;1.50;;;11.80;99.90;;;;;;5061271;28;20053;-35
2023/10/04 06:52:58;;;;;;;5.10;1.77;;;11.80;99.90;;;;;;5060695;28;20497;-35
2023/10/04 06:55:24;;;;;;;6.35;1.25;;;11.80;99.90;;;;;;5066242;28;20056;-35
2023/10/04 06:57:50;;;;;;;5.93;1.60;;;11.80;99.90;;;;;;5063939;28;21036;-35
2023/10/04 07:00:18;;;;;;;5.82;1.00;;;11.80;99.90;;;;;;5060559;28;20053;-35
2023/10/04 07:02:53;;;;;;;6.97;1.38;;;11.90;99.90;;;;;;5060949;28;20044;-35
2023/10/04 07:05:24;;;;;;;3.97;1.10;;;11.90;99.90;;;;;;5064139;28;20048;-37
2023/10/04 07:07:54;;;;;;;7.75;1.60;;;12.00;99.90;;;;;;5060246;28;20048;-36
2023/10/04 07:10:21;;;;;;;7.25;1.45;;;12.00;99.90;;;;;;5063079;28;20052;-36
2023/10/04 07:12:49;;;;;;;5.15;1.10;;;12.10;99.90;;;;;;5064438;28;20513;-36
2023/10/04 07:15:15;;;;;;;6.07;1.33;;;12.10;99.90;;;;;;5059256;28;20076;-37
2023/10/04 07:17:41;;;;;;;7.93;1.50;;;12.20;99.90;;;;;;5064887;28;20075;-36
2023/10/04 07:20:15;;;;;;;7.72;1.35;;;12.20;99.90;;;;;;5066667;28;20056;-36
2023/10/04 07:22:45;;;;;;;4.20;1.20;;;12.30;99.90;;;;;;5071868;28;20072;-36
2023/10/04 07:25:13;;;;;;;4.95;1.25;;;12.30;99.90;;;;;;5064420;28;20044;-36
2023/10/04 07:27:40;;;;;;;5.82;1.40;;;12.40;99.90;;;;;;5069068;28;20044;-35
2023/10/04 07:30:07;;;;;;;6.15;1.42;;;12.40;99.90;;;;;;5067670;28;20097;-36
2023/10/04 07:32:33;;;;;;;8.60;1.40;;;12.50;99.90;;;;;;5060494;28;20133;-36
2023/10/04 07:35:00;;;;;;;10.55;1.67;;;12.60;99.90;;;;;;5059175;28;20503;-36
2023/10/04 07:37:26;;;;;;;8.95;1.30;;;12.60;99.90;;;;;;5058621;28;20072;-36
2023/10/04 07:39:52;;;;;;;6.13;1.40;;;12.70;99.90;;;;;;5063064;28;20076;-37
2023/10/04 07:42:21;;;;;;;4.95;1.20;;;12.70;99.90;;;;;;5070477;28;20059;-36
2023/10/04 07:44:47;;;;;;;5.65;1.40;;;12.80;99.90;;;;;;5070399;28;20212;-36
2023/10/04 07:47:12;;;;;;;6.07;1.55;;;12.80;99.90;;;;;;5066243;28;20502;-35
2023/10/04 07:49:38;;;;;;;9.13;1.83;;;12.90;99.90;;;;;;5057060;28;20056;-36
2023/10/04 07:52:04;;;;;;;7.10;1.40;;;12.90;99.90;;;;;;5057994;28;20057;-35
2023/10/04 07:54:31;;;;;;;5.35;1.50;;;13.00;99.90;;;;;;5070787;28;20068;-36
2023/10/04 07:56:57;;;;;;;6.80;1.38;;;13.00;99.90;;;;;;5057632;28;20047;-36
2023/10/04 07:59:23;;;;;;;5.82;1.63;;;13.10;99.90;;;;;;5057917;28;21307;-37
2023/10/04 08:01:48;;;;;;;6.13;1.40;;;13.20;99.90;;;;;;5069805;28;20130;-36
2023/10/04 08:04:14;;;;;;;6.72;1.25;;;13.30;99.90;;;;;;5068030;28;20049;-35
2023/10/04 08:06:40;;;;;;;6.95;1.60;;;13.40;99.90;;;;;;5085831;28;20406;-36
2023/10/04 08:09:06;;;;;;;9.05;1.92;;;13.50;99.90;;;;;;5068959;28;20059;-35
2023/10/04 08:11:35;;;;;;;7.30;1.55;;;13.60;99.90;;;;;;5064863;28;20052;-36
2023/10/04 08:14:07;;;;;;;7.35;1.20;;;13.70;99.90;;;;;;5061172;28;21790;-36
2023/10/04 08:16:34;;;;;;;5.18;1.05;;;13.80;99.90;;;;;;5074401;28;20505;-36
2023/10/04 08:19:01;;;;;;;6.80;2.08;;;13.80;99.90;;;;;;5074078;28;20452;-37
2023/10/04 08:21:28;;;;;;;4.05;1.30;;;13.90;99.90;;;;;;5066494;28;20109;-35
2023/10/04 08:23:54;;;;;;;4.75;1.40;;;13.90;99.90;;;;;;5079314;28;20052;-35
2023/10/04 08:26:22;;;;;;;6.55;1.40;;;14.10;99.90;;;;;;5068513;28;20048;-35
2023/10/04 08:28:48;;;;;;;7.32;1.60;;;14.10;99.90;;;;;;5060216;28;20175;-35
2023/10/04 08:31:16;;;;;;;11.70;1.70;;;14.20;99.90;;;;;;5064174;28;20044;-35
2023/10/04 08:33:43;;;;;;;9.20;2.00;;;14.30;99.90;;;;;;5044577;28;20482;-35
2023/10/04 08:36:17;;;;;;;6.63;1.63;;;14.30;99.90;;;;;;5053831;28;20497;-36
2023/10/04 08:38:46;;;;;;;10.80;2.00;;;14.40;99.90;;;;;;5067524;28;20077;-35
2023/10/04 08:41:12;;;;;;;7.35;2.47;;;14.40;99.90;;;;;;5064558;28;20058;-35
2023/10/04 08:43:38;;;;;;;7.90;1.75;;;14.50;99.90;;;;;;5058507;28;20095;-35
2023/10/04 08:46:07;;;;;;;6.55;1.63;;;14.60;99.90;;;;;;5063729;28;20474;-35
2023/10/04 08:48:33;;;;;;;8.18;1.80;;;14.60;99.90;;;;;;5073657;28;20062;-35
2023/10/04 08:51:16;;;;;;;8.73;2.00;;;14.70;99.90;;;;;;5064798;28;20045;-35
2023/10/04 08:53:51;;;;;;;5.60;1.50;;;14.70;99.90;;;;;;5063649;28;20053;-35
2023/10/04 08:56:18;;;;;;;7.93;1.90;;;14.80;99.90;;;;;;5059428;28;20041;-35
2023/10/04 08:58:46;;;;;;;6.15;1.42;;;14.90;99.90;;;;;;5065113;28;20063;-35
2023/10/04 09:01:15;;;;;;;7.35;1.88;;;15.00;99.90;;;;;;5064739;28;20059;-35
2023/10/04 09:03:42;;;;;;;8.85;2.10;;;15.10;99.90;;;;;;5050227;28;20060;-35
2023/10/04 09:06:10;;;;;;;7.47;1.33;;;15.20;99.90;;;;;;5068508;28;20417;-35
2023/10/04 09:08:40;;;;;;;9.88;1.73;;;15.20;99.90;;;;;;5066244;28;20079;-35
2023/10/04 09:11:12;;;;;;;7.18;1.95;;;15.30;99.90;;;;;;5064967;28;20494;-35
2023/10/04 09:13:43;;;;;;;7.53;1.38;;;15.40;99.90;;;;;;5073217;28;20610;-35
2023/10/04 09:16:28;;;;;;;5.00;1.23;;;15.40;99.90;;;;;;5067743;28;20114;-36
2023/10/04 09:19:07;;;;;;;9.73;1.65;;;15.40;99.90;;;;;;5064533;28;20056;-36
2023/10/04 09:21:34;;;;;;;6.53;1.50;;;15.60;99.90;;;;;;5061064;28;20067;-35
2023/10/04 09:24:16;;;;;;;6.28;1.90;;;15.70;99.90;;;;;;5063895;28;20064;-35
2023/10/04 09:26:52;;;;;;;8.18;1.70;;;15.70;99.90;;;;;;5037059;28;20052;-35
2023/10/04 09:29:37;;;;;;;9.52;1.48;;;15.70;99.90;;;;;;5043869;28;20159;-35
2023/10/04 09:32:05;;;;;;;13.73;2.42;;;15.80;99.90;;;;;;5069837;28;20052;-35
2023/10/04 09:34:33;;;;;;;5.70;1.65;;;15.80;99.90;;;;;;5073042;28;20056;-35
2023/10/04 09:36:59;;;;;;;10.73;1.52;;;15.90;99.90;;;;;;5060526;28;20632;-35
2023/10/04 09:39:32;;;;;;;9.20;1.63;;;16.00;99.90;;;;;;5051496;28;20080;-35
2023/10/04 09:41:59;;;;;;;10.98;1.80;;;16.00;99.90;;;;;;5062614;28;20408;-36
2023/10/04 09:44:27;;;;;;;4.03;1.30;;;16.00;99.90;;;;;;5059941;28;20052;-36
2023/10/04 09:46:56;;;;;;;6.80;1.52;;;16.10;99.90;;;;;;5063077;28;20055;-36
2023/10/04 09:49:25;;;;;;;7.63;1.42;;;16.10;99.90;;;;;;5055625;28;20040;-36
2023/10/04 09:51:53;;;;;;;7.18;1.80;;;16.20;99.90;;;;;;5053415;28;20194;-38
2023/10/04 09:54:19;;;;;;;7.35;1.42;;;16.20;99.90;;;;;;5051669;28;20572;-36
2023/10/04 09:56:51;;;;;;;6.53;1.40;;;16.20;99.90;;;;;;5042259;28;20037;-36
2023/10/04 09:59:20;;;;;;;;;;;16.20;99.90;;;;;;5067028;28;20045;-37
2023/10/04 10:01:53;;;;;;;6.55;1.65;;;16.20;99.90;;;;;;5061948;28;19917;-37
2023/10/04 10:04:33;;;;;;;8.55;1.25;;;16.20;99.90;;;;;;5061765;28;20056;-36
2023/10/04 10:07:09;;;;;;;11.25;3.42;;;16.30;99.90;;;;;;5060203;28;20171;-36
2023/10/04 10:10:02;;;;;;;7.40;2.00;;;16.30;99.90;;;;;;5062424;28;20471;-36
2023/10/04 10:12:31;;;;;;;6.18;1.52;;;16.30;99.90;;;;;;5018462;28;20057;-36
2023/10/04 10:15:01;;;;;;;7.53;2.10;;;16.40;99.90;;;;;;5029317;28;20059;-35
2023/10/04 10:17:31;;;;;;;7.00;1.50;;;16.40;99.90;;;;;;5050092;28;20555;-37
2023/10/04 10:20:00;;;;;;;6.40;1.40;;;16.30;99.90;;;;;;5047774;28;20502;-36
2023/10/04 10:22:26;;;;;;;13.25;1.83;;;16.40;99.90;;;;;;5059088;28;20056;-36
2023/10/04 10:24:55;;;;;;;4.90;1.63;;;16.40;99.90;;;;;;5058779;28;20618;-35
2023/10/04 10:27:23;;;;;;;8.07;1.73;;;16.40;99.90;;;;;;5062197;28;20041;-35
2023/10/04 10:29:51;;;;;;;10.48;2.58;;;16.50;99.90;;;;;;5056840;28;20057;-35
2023/10/04 10:32:23;;;;;;;8.82;1.77;;;16.50;99.90;;;;;;5057929;28;20071;-36
2023/10/04 10:34:51;;;;;;;7.20;2.30;;;16.50;99.90;;;;;;5065987;28;20588;-36
2023/10/04 10:37:24;;;;;;;9.50;1.80;;;16.40;99.90;;;;;;5065900;28;20179;-36
2023/10/04 10:39:52;;;;;;;7.55;2.03;;;16.40;99.90;;;;;;5065343;28;20399;-35
2023/10/04 10:42:19;;;;;;;9.95;1.70;;;16.30;99.90;;;;;;5024757;28;20107;-35
2023/10/04 10:44:45;;;;;;;8.88;1.58;;;16.30;99.90;;;;;;5044241;28;20640;-36
2023/10/04 10:47:17;;;;;;;8.50;1.63;;;16.30;99.90;;;;;;5050895;28;20051;-35
2023/10/04 10:49:52;;;;;;;10.53;2.80;;;16.30;99.90;;;;;;5041689;28;20059;-36
2023/10/04 10:52:37;;;;;;;8.10;1.73;;;16.30;99.90;;;;;;5040490;28;20056;-36
2023/10/04 10:55:05;;;;;;;12.70;1.95;;;16.30;99.90;;;;;;5038841;28;20474;-35
2023/10/04 10:57:32;;;;;;;7.05;1.80;;;16.30;99.90;;;;;;5054182;28;20048;-36
2023/10/04 11:00:07;;;;;;;5.68;1.80;;;16.30;99.90;;;;;;5062965;28;20063;-36
2023/10/04 11:02:33;;;;;;;11.18;2.13;;;16.20;99.90;;;;;;5048031;28;20069;-35
2023/10/04 11:04:58;;;;;;;8.23;1.95;;;16.20;99.90;;;;;;5043522;28;20117;-36
2023/10/04 11:07:26;;;;;;;6.40;1.50;;;16.20;99.90;;;;;;5046629;28;20478;-36
2023/10/04 11:09:54;;;;;;;5.13;1.63;;;16.10;99.90;;;;;;5052332;28;20060;-35
2023/10/04 11:12:21;;;;;;;7.45;1.85;;;16.10;99.90;;;;;;5045142;28;20065;-36
2023/10/04 11:14:48;;;;;;;5.68;1.73;;;16.10;99.90;;;;;;5058575;28;20096;-35
2023/10/04 11:17:16;;;;;;;10.02;1.83;;;16.10;99.90;;;;;;5059865;28;20056;-36
2023/10/04 11:19:44;;;;;;;7.65;1.80;;;16.10;99.90;;;;;;5056491;28;20638;-43
2023/10/04 11:22:12;;;;;;;7.03;1.83;;;16.10;99.90;;;;;;5047271;28;20124;-35
2023/10/04 11:24:39;;;;;;;6.32;1.70;;;16.10;99.90;;;;;;5050518;28;20517;-36
2023/10/04 11:27:08;;;;;;;7.00;2.15;;;16.10;99.90;;;;;;5064849;28;20055;-35
2023/10/04 11:29:35;;;;;;;6.45;1.83;;;16.20;99.90;;;;;;5061637;28;20057;-35
2023/10/04 11:32:01;;;;;;;10.07;2.17;;;16.30;99.90;;;;;;5060252;28;20417;-36
2023/10/04 11:34:27;;;;;;;8.02;2.05;;;16.40;99.90;;;;;;5056908;28;20495;-36
2023/10/04 11:36:59;;;;;;;9.00;1.52;;;16.50;99.90;;;;;;5057604;28;20095;-35
2023/10/04 11:39:34;;;;;;;;;;;16.60;99.90;;;;;;5054166;28;21875;-35
2023/10/04 11:42:04;;;;;;;6.40;2.00;;;16.70;99.90;;;;;;5049361;28;20365;-36
2023/10/04 11:44:33;;;;;;;10.38;1.85;;;16.80;99.90;;;;;;5053717;28;20502;-35
2023/10/04 11:47:01;;;;;;;9.30;1.85;;;16.80;99.90;;;;;;5040237;28;20128;-36
2023/10/04 11:49:30;;;;;;;8.20;2.00;;;16.90;99.90;;;;;;5051465;28;20048;-36
2023/10/04 11:52:01;;;;;;;8.52;2.08;;;16.90;99.90;;;;;;5048599;28;20597;-35
2023/10/04 11:54:40;;;;;;;9.10;1.63;;;16.90;99.90;;;;;;5055143;28;20052;-35
2023/10/04 11:57:06;;;;;;;7.43;1.63;;;16.80;99.90;;;;;;5028843;28;20257;-36
2023/10/04 11:59:32;;;;;;;7.53;1.65;;;16.70;99.90;;;;;;5057350;28;20142;-35
2023/10/04 12:02:00;;;;;;;9.77;1.75;;;16.60;99.90;;;;;;5056203;28;20059;-35
2023/10/04 12:04:25;;;;;;;8.05;1.60;;;16.50;99.90;;;;;;5057828;28;20080;-35
2023/10/04 12:07:02;;;;;;;8.60;2.85;;;16.40;99.90;;;;;;5058348;28;20083;-36
2023/10/04 12:09:31;;;;;;;7.20;1.88;;;16.40;99.90;;;;;;5047775;28;20106;-36
2023/10/04 12:11:58;;;;;;;8.32;1.65;;;16.30;99.90;;;;;;5059738;28;20482;-36
2023/10/04 12:14:24;;;;;;;6.38;1.80;;;16.30;99.90;;;;;;5058303;28;20075;-35
2023/10/04 12:16:50;;;;;;;5.63;1.75;;;16.30;99.90;;;;;;5056323;28;20509;-35
2023/10/04 12:19:16;;;;;;;8.45;1.83;;;16.40;99.90;;;;;;5063684;28;20147;-35
2023/10/04 12:21:43;;;;;;;5.13;1.85;;;16.60;99.90;;;;;;5065504;28;20120;-35
2023/10/04 12:24:10;;;;;;;7.03;1.60;;;16.80;99.90;;;;;;5063226;28;20057;-35
2023/10/04 12:26:36;;;;;;;9.13;2.00;;;17.00;99.90;;;;;;5039000;28;20071;-35
2023/10/04 12:29:07;;;;;;;9.60;1.98;;;17.20;99.90;;;;;;5060309;28;20044;-35
2023/10/04 12:31:33;;;;;;;7.63;1.50;;;17.20;99.90;;;;;;5059784;28;20117;-35
2023/10/04 12:33:59;;;;;;;6.88;1.35;;;17.30;99.90;;;;;;5046741;28;20126;-35
2023/10/04 12:36:25;;;;;;;9.98;1.38;;;17.40;99.90;;;;;;5055871;28;20052;-35
2023/10/04 12:38:51;;;;;;;8.80;1.60;;;17.40;99.90;;;;;;5059340;28;20052;-35
2023/10/04 12:41:18;;;;;;;8.38;1.80;;;17.40;99.90;;;;;;5049859;28;20462;-35
2023/10/04 12:43:44;;;;;;;8.48;1.30;;;17.40;99.90;;;;;;5052660;28;20105;-36
2023/10/04 12:46:10;;;;;;;9.73;1.45;;;17.40;99.90;;;;;;5056065;28;20060;-35
2023/10/04 12:48:36;;;;;;;9.68;1.75;;;17.30;99.90;;;;;;5049420;28;20061;-35
2023/10/04 12:51:02;;;;;;;10.45;1.48;;;17.30;99.90;;;;;;5050600;28;20052;-35
2023/10/04 12:53:28;;;;;;;7.10;1.60;;;17.20;99.90;;;;;;5032357;28;20040;-35